Time;durP1;ratioP1;P1;durP2;ratioP2;P2;SDS_P1;SDS_P2;PMS_P1;PMS_P2;Temp;Humidity;BMP_temperature;BMP_pressure;BME280_temperature;BME280_humidity;BME280_pressure;Samples;Min_cycle;Max_cycle;Signal;HPM_P1;HPM_P2
2023/02/14 00:01:55;;;;;;;13.63;8.88;;;7.60;99.90;;;;;;5111700;28;20035;-42
2023/02/14 00:04:21;;;;;;;13.45;8.48;;;7.70;99.90;;;;;;5115147;28;20024;-42
2023/02/14 00:06:48;;;;;;;11.95;8.52;;;7.80;99.90;;;;;;5114420;28;20023;-41
2023/02/14 00:09:18;;;;;;;14.68;9.50;;;8.10;99.90;;;;;;5115197;28;20461;-42
2023/02/14 00:11:45;;;;;;;12.30;8.55;;;8.20;99.90;;;;;;5115261;28;20058;-40
2023/02/14 00:16:56;;;;;;;13.55;7.93;;;8.10;99.90;;;;;;5114995;28;20045;-42
2023/02/14 00:19:22;;;;;;;12.65;8.35;;;8.10;99.90;;;;;;5115191;28;20485;-42
2023/02/14 00:21:48;;;;;;;12.55;8.20;;;8.00;99.90;;;;;;5114335;28;20028;-42
2023/02/14 00:24:20;;;;;;;11.75;8.52;;;7.90;99.90;;;;;;5114410;28;20028;-43
2023/02/14 00:26:46;;;;;;;13.25;8.50;;;7.90;99.90;;;;;;5114346;28;20541;-42
2023/02/14 00:29:15;;;;;;;12.75;7.95;;;7.80;99.90;;;;;;5115414;28;20099;-43
2023/02/14 00:31:41;;;;;;;12.80;8.63;;;7.80;99.90;;;;;;5114947;28;20458;-42
2023/02/14 00:34:08;;;;;;;11.00;8.15;;;7.70;99.90;;;;;;5114808;28;20031;-43
2023/02/14 00:36:34;;;;;;;12.02;8.05;;;7.70;99.90;;;;;;5114661;28;20487;-42
2023/02/14 00:39:04;;;;;;;14.18;7.45;;;7.70;99.90;;;;;;5114114;28;20550;-42
2023/02/14 00:41:30;;;;;;;10.80;7.78;;;7.70;99.90;;;;;;5113955;28;20081;-40
2023/02/14 00:43:55;;;;;;;11.35;7.22;;;7.70;99.90;;;;;;5114372;28;20035;-41
2023/02/14 00:46:23;;;;;;;11.45;7.97;;;7.60;99.90;;;;;;5114245;28;20036;-42
2023/02/14 00:48:49;;;;;;;10.38;7.95;;;7.60;99.90;;;;;;5114694;28;20031;-42
2023/02/14 00:51:17;;;;;;;12.52;8.32;;;7.60;99.90;;;;;;5112655;28;20115;-41
2023/02/14 00:53:43;;;;;;;12.55;8.35;;;7.60;99.90;;;;;;5114450;28;20015;-41
2023/02/14 00:56:09;;;;;;;11.63;7.88;;;7.60;99.90;;;;;;5112940;28;20035;-41
2023/02/14 00:58:34;;;;;;;11.73;8.32;;;7.60;99.90;;;;;;5113842;28;20453;-39
2023/02/14 01:01:00;;;;;;;12.25;8.10;;;7.50;99.90;;;;;;5114031;28;20508;-34
2023/02/14 01:03:26;;;;;;;11.63;7.85;;;7.50;99.90;;;;;;5114016;28;20026;-42
2023/02/14 01:05:52;;;;;;;11.70;8.07;;;7.70;99.90;;;;;;5114369;28;20132;-43
2023/02/14 01:08:18;;;;;;;12.20;7.68;;;7.90;99.90;;;;;;5113817;28;20098;-40
2023/02/14 01:10:44;;;;;;;9.55;6.95;;;8.10;99.90;;;;;;5113957;28;20388;-38
2023/02/14 01:13:11;;;;;;;10.98;7.97;;;8.20;99.90;;;;;;5113255;28;20103;-35
2023/02/14 01:15:42;;;;;;;12.00;7.65;;;8.10;99.90;;;;;;5113699;28;20055;-37
2023/02/14 01:18:08;;;;;;;11.32;7.40;;;8.10;99.90;;;;;;5113672;28;20039;-35
2023/02/14 01:20:34;;;;;;;13.55;8.52;;;8.00;99.90;;;;;;5114040;28;20047;-36
2023/02/14 01:23:00;;;;;;;12.95;7.80;;;7.90;99.90;;;;;;5113672;28;20020;-36
2023/02/14 01:25:27;;;;;;;12.07;7.72;;;7.90;99.90;;;;;;5113807;28;20058;-37
2023/02/14 01:27:52;;;;;;;14.52;7.97;;;7.80;99.90;;;;;;5113335;28;20023;-43
2023/02/14 01:30:18;;;;;;;11.40;7.50;;;7.70;99.90;;;;;;5113262;28;20073;-42
2023/02/14 01:32:45;;;;;;;14.07;8.90;;;7.70;99.90;;;;;;5113672;27;20026;-42
2023/02/14 01:35:10;;;;;;;10.93;7.55;;;7.60;99.90;;;;;;5112316;28;20114;-41
2023/02/14 01:37:36;;;;;;;12.13;7.93;;;7.60;99.90;;;;;;5112904;27;20023;-39
2023/02/14 01:40:04;;;;;;;12.73;8.23;;;7.50;99.90;;;;;;5113208;28;20338;-42
2023/02/14 01:42:31;;;;;;;13.85;8.50;;;7.50;99.90;;;;;;5113258;28;20027;-38
2023/02/14 01:45:01;;;;;;;12.90;8.60;;;7.50;99.90;;;;;;5113020;28;20086;-41
2023/02/14 01:47:31;;;;;;;13.13;7.82;;;7.50;99.90;;;;;;5112758;28;20024;-37
2023/02/14 01:50:21;;;;;;;14.77;8.48;;;7.40;99.90;;;;;;5112850;28;20051;-34
2023/02/14 01:53:01;;;;;;;12.32;8.05;;;7.40;99.90;;;;;;5112924;28;20065;-36
2023/02/14 01:55:30;;;;;;;12.07;8.05;;;7.40;99.90;;;;;;5112919;28;20027;-39
2023/02/14 01:58:08;;;;;;;14.10;8.02;;;7.40;99.90;;;;;;5111296;28;20054;-42
2023/02/14 02:03:20;;;;;;;14.18;8.90;;;7.40;99.90;;;;;;5112760;28;20072;-43
2023/02/14 02:05:50;;;;;;;10.93;7.75;;;7.50;99.90;;;;;;5112397;28;20051;-40
2023/02/14 02:08:16;;;;;;;12.07;7.88;;;7.80;99.90;;;;;;5112347;28;20050;-35
2023/02/14 02:10:42;;;;;;;12.68;7.82;;;8.00;99.90;;;;;;5112309;28;20040;-37
2023/02/14 02:13:13;;;;;;;14.10;8.52;;;8.00;99.90;;;;;;5112761;28;20174;-37
2023/02/14 02:16:00;;;;;;;14.85;8.80;;;8.00;99.90;;;;;;5112323;28;20055;-33
2023/02/14 02:18:44;;;;;;;12.77;8.15;;;7.90;99.90;;;;;;5111292;28;20485;-39
2023/02/14 02:21:41;;;;;;;12.07;8.13;;;7.80;99.90;;;;;;5112127;28;20037;-36
2023/02/14 02:24:13;;;;;;;12.63;7.93;;;7.80;99.90;;;;;;5112257;28;20030;-36
2023/02/14 02:27:00;;;;;;;12.93;8.70;;;7.70;99.90;;;;;;5112098;28;20024;-36
2023/02/14 02:29:31;;;;;;;13.13;8.43;;;7.60;99.90;;;;;;5112402;28;20024;-34
2023/02/14 02:32:18;;;;;;;13.18;8.60;;;7.60;99.90;;;;;;5112620;28;20321;-32
2023/02/14 02:35:23;;;;;;;12.35;8.32;;;7.50;99.90;;;;;;5112101;28;20073;-34
2023/02/14 02:37:49;;;;;;;;;;;7.50;99.90;;;;;;5090702;28;20040;-36
2023/02/14 02:40:21;;;;;;;14.35;8.68;;;7.40;99.90;;;;;;5112079;28;19903;-36
2023/02/14 02:42:55;;;;;;;13.05;7.78;;;7.40;99.90;;;;;;5112098;28;20500;-42
2023/02/14 02:45:30;;;;;;;;;;;7.40;99.90;;;;;;5110960;28;20024;-42
2023/02/14 02:47:55;;;;;;;15.05;8.32;;;7.30;99.90;;;;;;5111610;28;20006;-42
2023/02/14 02:53:39;;;;;;;13.02;7.25;;;7.30;99.90;;;;;;5112161;28;20030;-34
2023/02/14 02:59:17;;;;;;;13.57;8.20;;;7.30;99.90;;;;;;5111763;28;20555;-38
2023/02/14 03:01:47;;;;;;;12.80;8.10;;;7.30;99.90;;;;;;5112005;28;20499;-36
2023/02/14 03:06:59;;;;;;;11.20;7.40;;;7.50;99.90;;;;;;5111367;28;20119;-38
2023/02/14 03:09:25;;;;;;;12.75;8.02;;;7.70;99.90;;;;;;5112081;28;20086;-40
2023/02/14 03:12:36;;;;;;;14.52;8.68;;;7.90;99.90;;;;;;5111814;28;20531;-42
2023/02/14 03:15:17;;;;;;;13.40;7.95;;;7.90;99.90;;;;;;5111867;28;20115;-42
2023/02/14 03:18:06;;;;;;;11.40;7.60;;;7.90;99.90;;;;;;5111350;28;20077;-42
2023/02/14 03:20:50;;;;;;;11.65;7.32;;;7.80;99.90;;;;;;5111166;28;20030;-39
2023/02/14 03:23:36;;;;;;;11.77;7.70;;;7.80;99.90;;;;;;5111740;28;20026;-37
2023/02/14 03:26:26;;;;;;;10.07;7.45;;;7.70;99.90;;;;;;5111406;28;20036;-40
2023/02/14 03:29:11;;;;;;;14.15;7.82;;;7.50;99.90;;;;;;5111683;28;20019;-39
2023/02/14 03:31:59;;;;;;;12.10;7.30;;;7.50;99.90;;;;;;5111414;28;20104;-34
2023/02/14 03:34:46;;;;;;;11.95;8.30;;;7.40;99.90;;;;;;5111466;28;20047;-41
2023/02/14 03:37:27;;;;;;;12.25;7.22;;;7.40;99.90;;;;;;5112708;28;20051;-37
2023/02/14 03:40:14;;;;;;;11.13;7.93;;;7.30;99.90;;;;;;5116024;28;20106;-41
2023/02/14 03:42:50;;;;;;;10.52;7.45;;;7.30;99.90;;;;;;5114202;28;20037;-42
2023/02/14 03:45:26;;;;;;;11.60;7.68;;;7.30;99.90;;;;;;5115561;28;20093;-43
2023/02/14 03:47:55;;;;;;;10.60;7.50;;;7.20;99.90;;;;;;5115431;28;20140;-42
2023/02/14 03:50:21;;;;;;;12.05;7.70;;;7.20;99.90;;;;;;5114890;28;20032;-40
2023/02/14 03:52:51;;;;;;;13.68;8.25;;;7.20;99.90;;;;;;5115090;28;20441;-41
2023/02/14 03:55:24;;;;;;;10.75;6.93;;;7.20;99.90;;;;;;5115350;28;20032;-41
2023/02/14 03:58:09;;;;;;;11.38;7.50;;;7.20;99.90;;;;;;5114685;28;20427;-41
2023/02/14 04:00:38;;;;;;;10.65;7.05;;;7.10;99.90;;;;;;5114713;28;20409;-42
2023/02/14 04:03:10;;;;;;;11.13;7.40;;;7.10;99.90;;;;;;5114918;28;20039;-41
2023/02/14 04:05:40;;;;;;;10.55;7.03;;;7.20;99.90;;;;;;5114706;28;20031;-42
2023/02/14 04:08:07;;;;;;;12.13;7.32;;;7.50;99.90;;;;;;5115090;28;20047;-42
2023/02/14 04:10:33;;;;;;;11.68;8.02;;;7.70;99.90;;;;;;5114735;28;20093;-42
2023/02/14 04:12:58;;;;;;;12.88;8.20;;;7.80;99.90;;;;;;5114834;28;20024;-33
2023/02/14 04:15:24;;;;;;;10.75;7.63;;;7.80;99.90;;;;;;5115013;28;20031;-38
2023/02/14 04:20:34;;;;;;;12.55;7.97;;;7.70;99.90;;;;;;5114380;28;20100;-34
2023/02/14 04:22:59;;;;;;;10.85;7.25;;;7.60;99.90;;;;;;5114499;28;20511;-34
2023/02/14 04:25:25;;;;;;;10.35;6.95;;;7.50;99.90;;;;;;5114518;28;20423;-34
2023/02/14 04:27:51;;;;;;;16.15;9.07;;;7.50;99.90;;;;;;5114429;28;20023;-37
2023/02/14 04:30:18;;;;;;;11.23;7.20;;;7.40;99.90;;;;;;5114318;28;20465;-40
2023/02/14 04:32:43;;;;;;;12.50;7.18;;;7.30;99.90;;;;;;5114304;28;20028;-38
2023/02/14 04:35:09;;;;;;;11.40;7.60;;;7.30;99.90;;;;;;5114709;28;20019;-35
2023/02/14 04:37:35;;;;;;;12.55;8.02;;;7.20;99.90;;;;;;5114477;28;20477;-39
2023/02/14 04:40:01;;;;;;;12.15;7.97;;;7.20;99.90;;;;;;5112966;28;20035;-38
2023/02/14 04:42:26;;;;;;;10.00;7.20;;;7.20;99.90;;;;;;5114193;28;20027;-35
2023/02/14 04:44:52;;;;;;;11.63;7.88;;;7.10;99.90;;;;;;5113964;28;20721;-36
2023/02/14 04:47:18;;;;;;;14.23;8.23;;;7.10;99.90;;;;;;5112520;28;20019;-32
2023/02/14 04:49:43;;;;;;;12.77;7.93;;;7.10;99.90;;;;;;5114116;28;20023;-36
2023/02/14 04:52:09;;;;;;;11.60;7.65;;;7.10;99.90;;;;;;5113015;28;20027;-36
2023/02/14 04:54:35;;;;;;;11.15;7.90;;;7.10;99.90;;;;;;5114281;28;20103;-37
2023/02/14 04:57:00;;;;;;;12.50;8.05;;;7.10;99.90;;;;;;5113924;28;20058;-33
2023/02/14 04:59:26;;;;;;;12.30;7.82;;;7.00;99.90;;;;;;5113762;28;20086;-34
2023/02/14 05:01:52;;;;;;;12.13;7.28;;;7.00;99.90;;;;;;5113892;28;20050;-37
2023/02/14 05:04:18;;;;;;;12.00;7.78;;;7.00;99.90;;;;;;5112732;28;20171;-35
2023/02/14 05:06:44;;;;;;;12.00;7.47;;;7.30;99.90;;;;;;5113644;28;20062;-34
2023/02/14 05:09:10;;;;;;;10.45;7.38;;;7.50;99.90;;;;;;5113318;28;20058;-38
2023/02/14 05:11:35;;;;;;;12.07;7.55;;;7.70;99.90;;;;;;5113555;28;20035;-34
2023/02/14 05:14:01;;;;;;;12.88;8.27;;;7.70;99.90;;;;;;5113575;28;20072;-32
2023/02/14 05:16:27;;;;;;;11.98;8.00;;;7.70;99.90;;;;;;5113407;28;20098;-36
2023/02/14 05:18:52;;;;;;;10.95;7.45;;;7.70;99.90;;;;;;5113767;28;20028;-38
2023/02/14 05:21:18;;;;;;;11.75;7.68;;;7.60;99.90;;;;;;5113617;28;20024;-32
2023/02/14 05:23:44;;;;;;;11.73;7.70;;;7.50;99.90;;;;;;5113358;28;20082;-36
2023/02/14 05:26:09;;;;;;;11.52;7.70;;;7.40;99.90;;;;;;5113349;28;20081;-43
2023/02/14 05:28:35;;;;;;;11.40;7.72;;;7.30;99.90;;;;;;5113436;28;20016;-43
2023/02/14 05:31:01;;;;;;;11.73;8.10;;;7.30;99.90;;;;;;5113162;28;20031;-45
2023/02/14 05:33:27;;;;;;;11.48;7.70;;;7.20;99.90;;;;;;5113334;28;20035;-41
2023/02/14 05:35:52;;;;;;;10.35;7.25;;;7.20;99.90;;;;;;5113050;28;20032;-41
2023/02/14 05:38:18;;;;;;;13.13;7.70;;;7.10;99.90;;;;;;5113188;28;20032;-42
2023/02/14 05:40:44;;;;;;;11.02;7.90;;;7.00;99.90;;;;;;5113050;28;20038;-41
2023/02/14 05:43:10;;;;;;;12.25;7.78;;;7.00;99.90;;;;;;5113422;28;20030;-43
2023/02/14 05:45:36;;;;;;;11.75;7.95;;;7.00;99.90;;;;;;5112895;28;20028;-39
2023/02/14 05:48:02;;;;;;;12.20;8.13;;;7.00;99.90;;;;;;5113094;28;20102;-39
2023/02/14 05:50:28;;;;;;;13.13;8.27;;;7.00;99.90;;;;;;5112820;28;20027;-40
2023/02/14 05:52:54;;;;;;;13.88;8.55;;;6.90;99.90;;;;;;5112903;28;20103;-42
2023/02/14 05:55:20;;;;;;;12.75;7.93;;;6.90;99.90;;;;;;5112725;28;20117;-42
2023/02/14 05:57:46;;;;;;;14.65;8.80;;;6.90;99.90;;;;;;5112501;28;20087;-37
2023/02/14 06:00:12;;;;;;;13.75;8.43;;;6.90;99.90;;;;;;5111953;28;20036;-42
2023/02/14 06:02:38;;;;;;;12.43;8.23;;;6.90;99.90;;;;;;5112542;28;20118;-38
2023/02/14 06:05:03;;;;;;;11.52;7.57;;;6.90;99.90;;;;;;5113058;28;20116;-43
2023/02/14 06:07:29;;;;;;;13.98;8.32;;;7.20;99.90;;;;;;5112313;28;20394;-37
2023/02/14 06:09:55;;;;;;;13.88;8.30;;;7.40;99.90;;;;;;5112887;28;20377;-36
2023/02/14 06:12:21;;;;;;;11.73;7.82;;;7.60;99.90;;;;;;5112979;28;20028;-34
2023/02/14 06:14:46;;;;;;;14.00;8.80;;;7.60;99.90;;;;;;5112305;28;20545;-36
2023/02/14 06:17:12;;;;;;;13.25;8.65;;;7.60;99.90;;;;;;5111968;28;20083;-37
2023/02/14 06:19:38;;;;;;;13.00;9.10;;;7.50;99.90;;;;;;5112675;28;20028;-34
2023/02/14 06:22:03;;;;;;;14.80;8.60;;;7.40;99.90;;;;;;5112604;28;20046;-33
2023/02/14 06:24:29;;;;;;;14.20;8.77;;;7.30;99.90;;;;;;5110955;28;20060;-35
2023/02/14 06:26:55;;;;;;;13.38;8.45;;;7.30;99.90;;;;;;5112247;28;20031;-37
2023/02/14 06:29:21;;;;;;;12.20;8.52;;;7.20;99.90;;;;;;5111026;28;20488;-38
2023/02/14 06:31:47;;;;;;;15.50;10.15;;;7.10;99.90;;;;;;5112099;28;20015;-40
2023/02/14 06:34:13;;;;;;;17.40;9.88;;;7.00;99.90;;;;;;5112449;28;20030;-42
2023/02/14 06:36:38;;;;;;;16.45;10.05;;;7.00;99.90;;;;;;5112319;28;20423;-42
2023/02/14 06:39:04;;;;;;;15.73;10.18;;;7.00;99.90;;;;;;5112088;28;20070;-42
2023/02/14 06:41:30;;;;;;;14.75;9.85;;;7.00;99.90;;;;;;5112498;28;20147;-41
2023/02/14 06:43:55;;;;;;;14.57;9.68;;;6.90;99.90;;;;;;5111828;28;20511;-40
2023/02/14 06:46:21;;;;;;;16.83;10.57;;;6.90;99.90;;;;;;5111559;28;20016;-35
2023/02/14 06:48:47;;;;;;;15.25;9.82;;;6.90;99.90;;;;;;5111741;28;20024;-37
2023/02/14 06:51:12;;;;;;;16.08;10.13;;;6.80;99.90;;;;;;5111811;28;20043;-35
2023/02/14 06:53:38;;;;;;;14.50;9.70;;;6.80;99.90;;;;;;5111820;28;20012;-36
2023/02/14 06:56:05;;;;;;;14.90;9.60;;;6.80;99.90;;;;;;5112071;28;20027;-36
2023/02/14 06:58:30;;;;;;;22.80;15.07;;;6.70;99.90;;;;;;5093416;28;20476;-37
2023/02/14 07:00:57;;;;;;;22.30;14.15;;;6.60;99.90;;;;;;5112021;28;20043;-38
2023/02/14 07:03:24;;;;;;;20.67;12.77;;;6.20;99.90;;;;;;5112147;28;20034;-32
2023/02/14 07:05:50;;;;;;;21.92;13.82;;;6.10;99.90;;;;;;5110715;28;20028;-36
2023/02/14 07:08:16;;;;;;;23.02;13.32;;;6.20;99.90;;;;;;5110649;28;20024;-38
2023/02/14 07:10:42;;;;;;;24.75;12.85;;;6.40;99.90;;;;;;5112406;28;20031;-36
2023/02/14 07:13:08;;;;;;;21.63;13.13;;;6.50;99.90;;;;;;5114876;28;20115;-37
2023/02/14 07:15:33;;;;;;;20.17;12.20;;;6.60;99.90;;;;;;5115900;28;20100;-33
2023/02/14 07:17:59;;;;;;;20.30;13.23;;;6.60;99.90;;;;;;5117255;28;20042;-34
2023/02/14 07:20:25;;;;;;;19.55;12.13;;;6.60;99.90;;;;;;5115808;28;20081;-34
2023/02/14 07:22:51;;;;;;;20.83;12.73;;;6.60;99.90;;;;;;5116229;28;20024;-38
2023/02/14 07:25:16;;;;;;;24.65;13.57;;;6.60;99.90;;;;;;5114768;28;20023;-34
2023/02/14 07:27:43;;;;;;;22.95;12.75;;;6.60;99.90;;;;;;5116099;28;20019;-32
2023/02/14 07:30:10;;;;;;;18.20;12.10;;;6.60;99.90;;;;;;5116240;28;20100;-38
2023/02/14 07:32:38;;;;;;;17.92;12.55;;;6.60;99.90;;;;;;5115836;28;20031;-35
2023/02/14 07:35:04;;;;;;;20.00;11.45;;;6.60;99.90;;;;;;5115420;28;20024;-34
2023/02/14 07:37:34;;;;;;;20.13;12.88;;;6.70;99.90;;;;;;5115610;28;20366;-34
2023/02/14 07:40:01;;;;;;;19.65;12.30;;;6.70;99.90;;;;;;5114004;28;20066;-34
2023/02/14 07:42:27;;;;;;;20.83;11.38;;;6.60;99.90;;;;;;5115760;28;20455;-33
2023/02/14 07:44:52;;;;;;;19.45;11.30;;;6.70;99.90;;;;;;5115409;28;20070;-36
2023/02/14 07:47:18;;;;;;;18.67;11.95;;;6.70;99.90;;;;;;5115799;28;20039;-35
2023/02/14 07:49:44;;;;;;;18.05;11.43;;;6.70;99.90;;;;;;5115484;28;20028;-37
2023/02/14 07:52:09;;;;;;;17.83;11.23;;;6.80;99.90;;;;;;5114958;28;20063;-38
2023/02/14 07:54:37;;;;;;;19.58;11.85;;;6.80;99.90;;;;;;5115556;28;20084;-35
2023/02/14 07:57:03;;;;;;;17.23;11.30;;;6.80;99.90;;;;;;5115016;28;20039;-39
2023/02/14 07:59:29;;;;;;;26.70;15.88;;;6.90;99.90;;;;;;5114494;28;20157;-37
2023/02/14 08:01:55;;;;;;;26.63;15.48;;;6.60;99.90;;;;;;5114823;28;20103;-38
2023/02/14 08:04:24;;;;;;;22.95;14.63;;;6.20;99.90;;;;;;5115117;28;20027;-39
2023/02/14 08:06:51;;;;;;;22.48;14.07;;;6.00;99.90;;;;;;5114827;28;20504;-39
2023/02/14 08:09:23;;;;;;;23.20;14.23;;;5.90;99.90;;;;;;5115637;28;20024;-39
2023/02/14 08:14:38;;;;;;;23.90;13.75;;;5.80;99.90;;;;;;5115639;28;20080;-38
2023/02/14 08:17:06;;;;;;;22.73;13.45;;;5.90;99.90;;;;;;5114836;28;20098;-37
2023/02/14 08:19:32;;;;;;;22.17;13.40;;;5.90;99.90;;;;;;5114428;28;20028;-38
2023/02/14 08:21:58;;;;;;;21.33;13.13;;;6.00;99.90;;;;;;5115019;28;20038;-35
2023/02/14 08:24:24;;;;;;;22.02;12.80;;;6.00;99.90;;;;;;5113884;28;20027;-40
2023/02/14 08:26:50;;;;;;;18.48;12.63;;;6.10;99.90;;;;;;5114837;28;20024;-40
2023/02/14 08:29:16;;;;;;;20.23;12.45;;;6.20;99.90;;;;;;5115882;28;20051;-39
2023/02/14 08:31:42;;;;;;;19.92;12.60;;;6.20;99.90;;;;;;5114309;28;20058;-42
2023/02/14 08:34:07;;;;;;;18.30;11.77;;;6.30;99.90;;;;;;5114272;28;20065;-36
2023/02/14 08:36:33;;;;;;;18.60;12.35;;;6.30;99.90;;;;;;5114107;28;20374;-39
2023/02/14 08:39:00;;;;;;;17.63;11.13;;;6.40;99.90;;;;;;5114755;28;20058;-39
2023/02/14 08:41:25;;;;;;;18.85;11.43;;;6.40;99.90;;;;;;5114801;28;20023;-35
2023/02/14 08:43:51;;;;;;;18.33;10.73;;;6.40;99.90;;;;;;5114941;28;20081;-40
2023/02/14 08:46:17;;;;;;;15.38;10.27;;;6.50;99.90;;;;;;5113961;28;20028;-40
2023/02/14 08:48:43;;;;;;;19.15;11.43;;;6.60;99.90;;;;;;5113995;28;20106;-37
2023/02/14 08:51:12;;;;;;;18.67;11.23;;;6.60;99.90;;;;;;5114825;28;20076;-39
2023/02/14 08:53:39;;;;;;;16.85;11.07;;;6.70;99.90;;;;;;5114556;28;20023;-38
2023/02/14 08:56:08;;;;;;;16.50;10.65;;;6.70;99.90;;;;;;5114452;28;20031;-39
2023/02/14 08:58:37;;;;;;;16.50;10.75;;;6.70;99.90;;;;;;5116914;28;20035;-38
2023/02/14 09:01:10;;;;;;;16.00;10.57;;;6.80;99.90;;;;;;5114710;28;20035;-39
2023/02/14 09:03:36;;;;;;;17.27;9.88;;;6.80;99.90;;;;;;5113936;28;20034;-37
2023/02/14 09:06:07;;;;;;;16.02;10.48;;;6.90;99.90;;;;;;5114361;28;20035;-39
2023/02/14 09:08:36;;;;;;;14.50;9.32;;;6.90;99.90;;;;;;5114541;28;20109;-40
2023/02/14 09:11:10;;;;;;;16.92;9.65;;;7.00;99.90;;;;;;5113609;28;20055;-34
2023/02/14 09:13:36;;;;;;;13.43;9.38;;;7.00;99.90;;;;;;5113565;28;20470;-37
2023/02/14 09:16:06;;;;;;;16.23;9.80;;;7.00;99.90;;;;;;5112945;28;20031;-38
2023/02/14 09:18:33;;;;;;;15.18;9.48;;;7.10;99.90;;;;;;5115164;28;20047;-38
2023/02/14 09:20:59;;;;;;;15.65;9.45;;;7.10;99.90;;;;;;5114816;28;20043;-40
2023/02/14 09:23:24;;;;;;;13.77;9.20;;;7.10;99.90;;;;;;5115026;28;20481;-39
2023/02/14 09:25:50;;;;;;;12.55;8.73;;;7.10;99.90;;;;;;5113495;28;20027;-38
2023/02/14 09:28:15;;;;;;;12.32;8.52;;;7.20;99.90;;;;;;5113116;28;20072;-42
2023/02/14 09:30:41;;;;;;;12.80;8.73;;;7.20;99.90;;;;;;5113166;28;20023;-35
2023/02/14 09:33:07;;;;;;;13.98;8.60;;;7.30;99.90;;;;;;5113580;28;20084;-36
2023/02/14 09:35:32;;;;;;;15.48;9.00;;;7.30;99.90;;;;;;5113593;28;20485;-43
2023/02/14 09:38:18;;;;;;;13.63;9.00;;;7.40;99.90;;;;;;5113764;28;20030;-42
2023/02/14 09:40:45;;;;;;;12.90;8.45;;;7.40;99.90;;;;;;5113179;28;20110;-43
2023/02/14 09:43:29;;;;;;;15.15;8.48;;;7.40;99.90;;;;;;5113248;28;20019;-43
2023/02/14 09:45:59;;;;;;;12.65;8.93;;;7.50;99.90;;;;;;5114737;28;20035;-42
2023/02/14 09:48:32;;;;;;;11.55;7.90;;;7.50;99.90;;;;;;5114449;28;20104;-43
2023/02/14 09:51:07;;;;;;;12.73;7.97;;;7.50;99.90;;;;;;5113242;28;20026;-44
2023/02/14 09:53:43;;;;;;;11.45;7.65;;;7.60;99.90;;;;;;5114075;28;20027;-42
2023/02/14 09:56:23;;;;;;;11.98;7.53;;;7.60;99.90;;;;;;5112703;28;20076;-43
2023/02/14 09:58:58;;;;;;;11.23;7.55;;;7.70;99.90;;;;;;5112617;28;20039;-44
2023/02/14 10:01:46;;;;;;;12.70;8.30;;;7.70;99.90;;;;;;5112502;28;20036;-44
2023/02/14 10:04:20;;;;;;;12.25;7.95;;;7.70;99.90;;;;;;5112623;28;20117;-43
2023/02/14 10:07:08;;;;;;;10.97;7.63;;;7.70;99.90;;;;;;5112534;28;20043;-37
2023/02/14 10:10:03;;;;;;;9.85;7.03;;;7.80;99.90;;;;;;5110979;28;20019;-40
2023/02/14 10:12:31;;;;;;;12.05;7.38;;;7.80;99.90;;;;;;5112408;28;20106;-39
2023/02/14 10:15:01;;;;;;;11.73;7.10;;;7.90;99.90;;;;;;5112399;28;20140;-43
2023/02/14 10:17:56;;;;;;;10.32;7.05;;;7.90;99.90;;;;;;5111923;28;20023;-44
2023/02/14 10:20:33;;;;;;;;;;;7.90;99.90;;;;;;5111706;28;20034;-42
2023/02/14 10:23:30;;;;;;;11.50;7.20;;;8.00;99.90;;;;;;5111936;28;19990;-44
2023/02/14 10:26:03;;;;;;;10.52;6.78;;;8.00;99.90;;;;;;5108498;28;20346;-42
2023/02/14 10:28:41;;;;;;;18.10;10.48;;;8.00;99.90;;;;;;5112256;28;20026;-44
2023/02/14 10:31:18;;;;;;;17.45;11.02;;;8.10;99.90;;;;;;5111969;28;20094;-43
2023/02/14 10:33:56;;;;;;;17.15;9.80;;;8.10;99.90;;;;;;5113256;28;20020;-36
2023/02/14 10:36:30;;;;;;;14.38;9.07;;;8.10;99.90;;;;;;5113070;28;20072;-43
2023/02/14 10:38:59;;;;;;;15.57;9.00;;;8.10;99.90;;;;;;5112644;28;20031;-39
2023/02/14 10:41:55;;;;;;;16.60;10.30;;;8.20;99.90;;;;;;5111905;28;20480;-40
2023/02/14 10:44:46;;;;;;;18.45;9.50;;;8.20;99.90;;;;;;5112430;28;20023;-43
2023/02/14 10:48:05;;;;;;;12.35;8.50;;;8.30;99.90;;;;;;5110461;28;20538;-42
2023/02/14 10:50:54;;;;;;;14.52;8.73;;;8.30;99.90;;;;;;5052101;28;20021;-41
2023/02/14 10:53:48;;;;;;;13.93;8.27;;;8.40;99.90;;;;;;5068926;28;20029;-42
2023/02/14 10:56:34;;;;;;;13.20;8.63;;;8.40;99.90;;;;;;5104643;28;20446;-42
2023/02/14 10:59:22;;;;;;;13.80;8.20;;;8.50;99.90;;;;;;5111558;28;20493;-42
2023/02/14 11:01:51;;;;;;;13.77;8.00;;;8.60;99.90;;;;;;5110301;28;20039;-42
2023/02/14 11:04:18;;;;;;;12.45;7.80;;;8.60;99.90;;;;;;5112257;28;20022;-43
2023/02/14 11:06:47;;;;;;;9.55;6.93;;;8.60;99.90;;;;;;5111586;28;20358;-42
2023/02/14 11:09:12;;;;;;;11.13;6.72;;;8.60;99.90;;;;;;5112249;28;20080;-43
2023/02/14 11:11:46;;;;;;;9.65;6.90;;;8.70;99.90;;;;;;5111750;28;20027;-43
2023/02/14 11:14:32;;;;;;;9.50;6.53;;;8.70;99.90;;;;;;5111798;28;20028;-42
2023/02/14 11:16:59;;;;;;;14.23;6.78;;;8.70;99.90;;;;;;5110843;28;20101;-43
2023/02/14 11:19:33;;;;;;;9.07;6.60;;;8.80;99.90;;;;;;5111609;28;20106;-43
2023/02/14 11:22:01;;;;;;;10.02;6.68;;;8.80;99.90;;;;;;5111702;28;20465;-42
2023/02/14 11:24:48;;;;;;;10.30;6.63;;;8.80;99.90;;;;;;5110250;28;20027;-42
2023/02/14 11:27:18;;;;;;;10.75;6.95;;;8.90;99.90;;;;;;5111327;28;20020;-43
2023/02/14 11:29:47;;;;;;;9.55;6.15;;;8.90;99.90;;;;;;5111674;28;20023;-43
2023/02/14 11:32:13;;;;;;;8.30;5.45;;;9.00;99.90;;;;;;5111874;28;20385;-43
2023/02/14 11:34:44;;;;;;;8.73;6.10;;;8.90;99.90;;;;;;5111572;28;20035;-41
2023/02/14 11:37:21;;;;;;;9.85;6.10;;;9.00;99.90;;;;;;5111641;28;20496;-43
2023/02/14 11:39:49;;;;;;;8.18;5.40;;;9.00;99.90;;;;;;5111424;28;20028;-43
2023/02/14 11:42:40;;;;;;;11.40;6.13;;;9.00;99.90;;;;;;5111788;28;20016;-43
2023/02/14 11:45:07;;;;;;;8.73;5.15;;;9.00;99.90;;;;;;5111382;28;20038;-42
2023/02/14 11:47:40;;;;;;;8.70;6.28;;;9.00;99.90;;;;;;5111288;28;20034;-38
2023/02/14 11:50:27;;;;;;;9.45;6.00;;;9.10;99.90;;;;;;5110334;28;20427;-43
2023/02/14 11:52:55;;;;;;;6.65;4.95;;;9.10;99.90;;;;;;5111755;28;20103;-40
2023/02/14 11:55:32;;;;;;;9.80;5.72;;;9.10;99.90;;;;;;5111159;28;20092;-40
2023/02/14 11:58:00;;;;;;;8.38;5.07;;;9.10;99.90;;;;;;5112256;28;20092;-41
2023/02/14 12:00:29;;;;;;;7.90;5.00;;;9.10;99.90;;;;;;5114882;28;20035;-42
2023/02/14 12:02:56;;;;;;;9.57;5.30;;;9.20;99.90;;;;;;5115452;28;20039;-43
2023/02/14 12:05:35;;;;;;;7.53;5.35;;;9.10;99.90;;;;;;5115284;27;20019;-41
2023/02/14 12:08:05;;;;;;;7.60;4.80;;;9.20;99.90;;;;;;5115286;28;20095;-43
2023/02/14 12:10:35;;;;;;;6.93;4.75;;;9.20;99.90;;;;;;5114490;28;20079;-43
2023/02/14 12:13:07;;;;;;;7.28;4.88;;;9.20;99.90;;;;;;5114631;28;20020;-43
2023/02/14 12:15:57;;;;;;;7.22;5.10;;;9.20;99.90;;;;;;5115025;28;20452;-43
2023/02/14 12:18:44;;;;;;;12.80;7.82;;;9.20;99.90;;;;;;5114261;28;20040;-43
2023/02/14 12:21:32;;;;;;;16.75;9.50;;;9.20;99.90;;;;;;5114638;28;20051;-42
2023/02/14 12:24:16;;;;;;;18.42;10.07;;;9.20;99.90;;;;;;5115090;28;20696;-43
2023/02/14 12:26:41;;;;;;;15.30;8.75;;;9.30;99.90;;;;;;5115037;28;20034;-41
2023/02/14 12:29:19;;;;;;;16.95;8.90;;;;;;;;;;5115256;28;20020;-42
2023/02/14 12:31:47;;;;;;;13.27;8.20;;;;;;;;;;5115518;28;20077;-41
2023/02/14 12:34:13;;;;;;;15.02;8.35;;;;;;;;;;5115052;28;20019;-42
2023/02/14 12:36:52;;;;;;;12.98;8.05;;;;;;;;;;5114796;28;20024;-42
2023/02/14 12:39:30;;;;;;;15.40;7.70;;;;;;;;;;5115010;28;20030;-41
2023/02/14 12:42:09;;;;;;;14.35;7.28;;;;;;;;;;5114211;28;20030;-42
2023/02/14 12:44:35;;;;;;;11.77;6.95;;;;;;;;;;5114395;28;20036;-37
2023/02/14 12:47:12;;;;;;;12.20;7.25;;;;;;;;;;5113828;28;20116;-42
2023/02/14 12:49:48;;;;;;;12.02;6.70;;;;;;;;;;5114237;28;20024;-40
2023/02/14 12:52:33;;;;;;;10.63;6.32;;;;;;;;;;5114603;27;20111;-41
2023/02/14 12:55:17;;;;;;;11.13;6.43;;;;;;;;;;5114664;28;20028;-42
2023/02/14 12:57:44;;;;;;;10.68;6.20;;;;;;;;;;5113108;28;20141;-42
2023/02/14 13:00:16;;;;;;;10.80;6.07;;;;;;;;;;5114296;28;20471;-42
2023/02/14 13:02:57;;;;;;;10.80;6.00;;;;;;;;;;5114424;28;20517;-39
2023/02/14 13:05:56;;;;;;;9.05;5.45;;;;;;;;;;5112095;28;20183;-42
2023/02/14 13:08:46;;;;;;;13.82;5.57;;;;;;;;;;5090427;28;20040;-40
2023/02/14 13:11:12;;;;;;;9.75;5.88;;;;;;;;;;5113776;28;20031;-42
2023/02/14 13:13:41;;;;;;;11.52;5.47;;;;;;;;;;5113757;28;20023;-42
2023/02/14 13:16:26;;;;;;;9.00;5.10;;;;;;;;;;5113826;28;20032;-41
2023/02/14 13:19:01;;;;;;;8.77;5.43;;;;;;;;;;5113857;28;20039;-42
2023/02/14 13:21:29;;;;;;;6.75;4.50;;;;;;;;;;5113655;28;20027;-42
2023/02/14 13:23:57;;;;;;;6.93;4.60;;;;;;;;;;5113648;28;20076;-41
2023/02/14 13:26:26;;;;;;;10.40;5.25;;;;;;;;;;5113006;28;20027;-42
2023/02/14 13:28:59;;;;;;;7.28;4.40;;;;;;;;;;5114552;27;20027;-42
2023/02/14 13:31:25;;;;;;;6.57;4.68;;;;;;;;;;5112576;28;20073;-37
2023/02/14 13:33:53;;;;;;;7.43;4.57;;;;;;;;;;5113443;28;20015;-39
2023/02/14 13:36:20;;;;;;;7.80;4.38;;;;;;;;;;5113159;28;20053;-40